sensor_id;sensor_type;location;lat;lon;timestamp;pressure;altitude;pressure_sealevel;temperature;humidity
9307;BME280;4691;47.612;7.610;2023-04-01T00:01:50;98240.28;;;8.23;nan
9307;BME280;4691;47.612;7.610;2023-04-01T00:04:16;98256.03;;;8.26;nan
9307;BME280;4691;47.612;7.610;2023-04-01T00:06:41;98263.78;;;8.29;nan
9307;BME280;4691;47.612;7.610;2023-04-01T00:09:07;98273.00;;;8.37;nan
9307;BME280;4691;47.612;7.610;2023-04-01T00:11:32;98284.59;;;8.24;nan
9307;BME280;4691;47.612;7.610;2023-04-01T00:13:58;98287.00;;;8.16;nan
9307;BME280;4691;47.612;7.610;2023-04-01T00:16:23;98311.22;;;8.24;nan
9307;BME280;4691;47.612;7.610;2023-04-01T00:18:50;98326.00;;;8.28;nan
9307;BME280;4691;47.612;7.610;2023-04-01T00:21:15;98342.75;;;8.31;nan
9307;BME280;4691;47.612;7.610;2023-04-01T00:23:41;98350.78;;;8.42;nan
9307;BME280;4691;47.612;7.610;2023-04-01T00:26:06;98361.50;;;8.64;nan
9307;BME280;4691;47.612;7.610;2023-04-01T00:28:33;98366.88;;;8.87;nan
9307;BME280;4691;47.612;7.610;2023-04-01T00:31:04;98292.34;;;8.97;nan
9307;BME280;4691;47.612;7.610;2023-04-01T00:33:29;98208.94;;;8.94;nan
9307;BME280;4691;47.612;7.610;2023-04-01T00:35:55;98128.94;;;8.94;nan
9307;BME280;4691;47.612;7.610;2023-04-01T00:38:21;98089.78;;;8.95;nan
9307;BME280;4691;47.612;7.610;2023-04-01T00:40:47;98069.00;;;9.10;nan
9307;BME280;4691;47.612;7.610;2023-04-01T00:43:17;98014.94;;;9.29;nan
9307;BME280;4691;47.612;7.610;2023-04-01T00:45:45;97835.16;;;9.60;nan
9307;BME280;4691;47.612;7.610;2023-04-01T00:48:19;97776.88;;;9.56;nan
9307;BME280;4691;47.612;7.610;2023-04-01T00:51:04;97687.09;;;9.65;nan
9307;BME280;4691;47.612;7.610;2023-04-01T00:53:31;97550.94;;;9.84;nan
9307;BME280;4691;47.612;7.610;2023-04-01T00:56:05;97520.59;;;9.75;nan
9307;BME280;4691;47.612;7.610;2023-04-01T00:58:35;97444.63;;;9.97;nan
9307;BME280;4691;47.612;7.610;2023-04-01T01:01:02;97394.50;;;9.91;nan
9307;BME280;4691;47.612;7.610;2023-04-01T01:03:28;97309.81;;;10.01;nan
9307;BME280;4691;47.612;7.610;2023-04-01T01:09:00;97609.09;;;9.80;nan
9307;BME280;4691;47.612;7.610;2023-04-01T01:11:38;97428.63;;;9.97;nan
9307;BME280;4691;47.612;7.610;2023-04-01T01:14:25;97338.66;;;9.98;nan
9307;BME280;4691;47.612;7.610;2023-04-01T01:17:02;97319.34;;;9.86;nan
9307;BME280;4691;47.612;7.610;2023-04-01T01:19:52;97338.03;;;9.86;nan
9307;BME280;4691;47.612;7.610;2023-04-01T01:27:39;97232.63;;;9.90;nan
9307;BME280;4691;47.612;7.610;2023-04-01T01:35:59;97223.34;;;9.94;nan
9307;BME280;4691;47.612;7.610;2023-04-01T01:38:31;97161.72;;;10.14;nan
9307;BME280;4691;47.612;7.610;2023-04-01T01:40:58;97150.94;;;9.97;nan
9307;BME280;4691;47.612;7.610;2023-04-01T01:43:29;97203.63;;;9.95;nan
9307;BME280;4691;47.612;7.610;2023-04-01T01:45:57;97201.28;;;9.92;nan
9307;BME280;4691;47.612;7.610;2023-04-01T01:48:26;97210.59;;;9.88;nan
9307;BME280;4691;47.612;7.610;2023-04-01T01:50:53;97199.59;;;9.91;nan
9307;BME280;4691;47.612;7.610;2023-04-01T01:53:18;97167.25;;;9.94;nan
9307;BME280;4691;47.612;7.610;2023-04-01T01:55:46;97193.81;;;9.78;nan
9307;BME280;4691;47.612;7.610;2023-04-01T01:58:27;97212.50;;;9.78;nan
9307;BME280;4691;47.612;7.610;2023-04-01T02:00:59;97233.47;;;9.73;nan
9307;BME280;4691;47.612;7.610;2023-04-01T02:03:27;97241.66;;;9.71;nan
9307;BME280;4691;47.612;7.610;2023-04-01T02:05:56;97228.88;;;9.83;nan
9307;BME280;4691;47.612;7.610;2023-04-01T02:08:29;97189.31;;;9.78;nan
9307;BME280;4691;47.612;7.610;2023-04-01T02:11:04;97177.47;;;9.81;nan
9307;BME280;4691;47.612;7.610;2023-04-01T02:13:36;97195.66;;;9.77;nan
9307;BME280;4691;47.612;7.610;2023-04-01T02:22:55;97138.44;;;9.80;100.00
9307;BME280;4691;47.612;7.610;2023-04-01T02:25:24;97152.47;;;9.82;100.00
9307;BME280;4691;47.612;7.610;2023-04-01T02:27:51;97121.75;;;9.78;100.00
9307;BME280;4691;47.612;7.610;2023-04-01T02:30:18;97142.59;;;9.74;100.00
9307;BME280;4691;47.612;7.610;2023-04-01T02:32:44;97124.78;;;9.83;100.00
9307;BME280;4691;47.612;7.610;2023-04-01T02:35:10;97101.81;;;9.90;100.00
9307;BME280;4691;47.612;7.610;2023-04-01T02:37:38;97082.44;;;9.88;100.00
9307;BME280;4691;47.612;7.610;2023-04-01T02:40:05;97099.41;;;9.79;100.00
9307;BME280;4691;47.612;7.610;2023-04-01T02:42:35;97088.88;;;9.77;100.00
9307;BME280;4691;47.612;7.610;2023-04-01T02:45:00;97094.44;;;9.84;100.00
9307;BME280;4691;47.612;7.610;2023-04-01T02:47:26;97106.09;;;9.83;100.00
9307;BME280;4691;47.612;7.610;2023-04-01T02:49:51;97107.16;;;9.90;100.00
9307;BME280;4691;47.612;7.610;2023-04-01T02:52:23;97091.78;;;9.84;100.00
9307;BME280;4691;47.612;7.610;2023-04-01T02:54:48;97112.81;;;9.87;100.00
9307;BME280;4691;47.612;7.610;2023-04-01T02:57:13;97243.16;;;9.38;100.00
9307;BME280;4691;47.612;7.610;2023-04-01T02:59:39;97476.44;;;9.53;28.43
9307;BME280;4691;47.612;7.610;2023-04-01T03:02:04;97043.13;;;8.66;23.02
9307;BME280;4691;47.612;7.610;2023-04-01T03:04:30;96622.09;;;9.01;23.02
9307;BME280;4691;47.612;7.610;2023-04-01T03:06:55;96864.34;;;8.78;23.11
9307;BME280;4691;47.612;7.610;2023-04-01T03:09:20;96982.03;;;8.91;23.17
9307;BME280;4691;47.612;7.610;2023-04-01T03:11:45;97281.88;;;8.01;23.64
9307;BME280;4691;47.612;7.610;2023-04-01T03:14:11;97185.41;;;8.26;23.94
9307;BME280;4691;47.612;7.610;2023-04-01T03:16:36;97975.19;;;10.76;26.16
9307;BME280;4691;47.612;7.610;2023-04-01T03:19:01;97328.53;;;10.37;27.08
9307;BME280;4691;47.612;7.610;2023-04-01T03:21:27;97170.69;;;10.65;25.64
9307;BME280;4691;47.612;7.610;2023-04-01T03:23:52;96955.53;;;10.61;25.11
9307;BME280;4691;47.612;7.610;2023-04-01T03:26:18;97020.88;;;10.75;24.27
9307;BME280;4691;47.612;7.610;2023-04-01T03:28:44;97066.53;;;10.89;23.69
9307;BME280;4691;47.612;7.610;2023-04-01T03:31:10;97191.47;;;11.30;23.30
9307;BME280;4691;47.612;7.610;2023-04-01T03:33:35;97105.97;;;10.87;23.26
9307;BME280;4691;47.612;7.610;2023-04-01T03:36:01;97453.66;;;10.78;23.24
9307;BME280;4691;47.612;7.610;2023-04-01T03:38:28;97711.56;;;10.83;23.48
9307;BME280;4691;47.612;7.610;2023-04-01T03:40:53;98049.91;;;11.26;24.41
9307;BME280;4691;47.612;7.610;2023-04-01T03:43:18;97950.66;;;11.57;30.72
9307;BME280;4691;47.612;7.610;2023-04-01T03:45:50;97624.88;;;11.40;100.00
9307;BME280;4691;47.612;7.610;2023-04-01T03:48:16;97480.75;;;11.01;100.00
9307;BME280;4691;47.612;7.610;2023-04-01T03:50:42;97358.72;;;11.26;100.00
9307;BME280;4691;47.612;7.610;2023-04-01T03:53:08;97350.78;;;11.16;100.00
9307;BME280;4691;47.612;7.610;2023-04-01T03:55:35;97323.94;;;11.26;100.00
9307;BME280;4691;47.612;7.610;2023-04-01T03:58:00;97467.66;;;11.42;100.00
9307;BME280;4691;47.612;7.610;2023-04-01T04:00:28;97887.03;;;11.04;33.11
9307;BME280;4691;47.612;7.610;2023-04-01T04:02:53;98021.91;;;11.11;100.00
9307;BME280;4691;47.612;7.610;2023-04-01T04:05:20;97675.50;;;11.15;100.00
9307;BME280;4691;47.612;7.610;2023-04-01T04:07:46;97444.88;;;11.38;100.00
9307;BME280;4691;47.612;7.610;2023-04-01T04:10:11;97239.00;;;10.94;100.00
9307;BME280;4691;47.612;7.610;2023-04-01T04:12:36;97182.59;;;11.21;100.00
9307;BME280;4691;47.612;7.610;2023-04-01T04:15:02;97159.00;;;11.17;100.00
9307;BME280;4691;47.612;7.610;2023-04-01T04:17:27;97153.16;;;11.05;100.00
9307;BME280;4691;47.612;7.610;2023-04-01T04:19:52;97160.00;;;11.07;100.00
9307;BME280;4691;47.612;7.610;2023-04-01T04:22:17;97163.19;;;10.68;100.00
9307;BME280;4691;47.612;7.610;2023-04-01T04:24:43;97178.97;;;10.80;100.00
9307;BME280;4691;47.612;7.610;2023-04-01T04:27:08;97179.34;;;10.93;100.00
9307;BME280;4691;47.612;7.610;2023-04-01T04:29:33;97193.59;;;10.67;100.00
9307;BME280;4691;47.612;7.610;2023-04-01T04:31:59;97190.81;;;10.77;100.00
9307;BME280;4691;47.612;7.610;2023-04-01T04:34:25;97189.78;;;10.70;100.00
9307;BME280;4691;47.612;7.610;2023-04-01T04:36:50;97185.47;;;10.77;100.00
9307;BME280;4691;47.612;7.610;2023-04-01T04:39:15;97190.16;;;10.83;100.00
9307;BME280;4691;47.612;7.610;2023-04-01T04:41:41;97184.53;;;10.95;100.00
9307;BME280;4691;47.612;7.610;2023-04-01T04:44:07;97180.16;;;10.94;100.00
9307;BME280;4691;47.612;7.610;2023-04-01T04:46:32;97184.19;;;10.89;100.00
9307;BME280;4691;47.612;7.610;2023-04-01T04:48:58;97196.94;;;10.61;100.00
9307;BME280;4691;47.612;7.610;2023-04-01T04:51:23;97217.25;;;10.88;100.00
9307;BME280;4691;47.612;7.610;2023-04-01T04:53:49;97218.38;;;10.78;100.00
9307;BME280;4691;47.612;7.610;2023-04-01T04:56:19;97238.59;;;10.80;100.00
9307;BME280;4691;47.612;7.610;2023-04-01T04:58:45;97244.25;;;10.69;100.00
9307;BME280;4691;47.612;7.610;2023-04-01T05:01:13;97228.69;;;10.64;100.00
9307;BME280;4691;47.612;7.610;2023-04-01T05:03:39;97220.56;;;10.74;100.00
9307;BME280;4691;47.612;7.610;2023-04-01T05:06:05;97190.53;;;10.97;100.00
9307;BME280;4691;47.612;7.610;2023-04-01T05:08:31;97172.50;;;10.99;100.00
9307;BME280;4691;47.612;7.610;2023-04-01T05:10:58;97161.81;;;10.99;100.00
9307;BME280;4691;47.612;7.610;2023-04-01T05:13:23;97166.16;;;11.00;100.00
9307;BME280;4691;47.612;7.610;2023-04-01T05:15:48;97165.59;;;11.30;100.00
9307;BME280;4691;47.612;7.610;2023-04-01T05:18:14;97170.59;;;11.25;100.00
9307;BME280;4691;47.612;7.610;2023-04-01T05:20:39;97171.66;;;10.98;100.00
9307;BME280;4691;47.612;7.610;2023-04-01T05:23:10;97172.56;;;11.15;100.00
9307;BME280;4691;47.612;7.610;2023-04-01T05:25:38;97177.63;;;11.34;100.00
9307;BME280;4691;47.612;7.610;2023-04-01T05:28:03;97180.63;;;11.40;100.00
9307;BME280;4691;47.612;7.610;2023-04-01T05:30:28;97171.16;;;10.95;100.00
9307;BME280;4691;47.612;7.610;2023-04-01T05:32:54;97173.03;;;11.02;100.00
9307;BME280;4691;47.612;7.610;2023-04-01T05:35:19;97167.25;;;11.40;100.00
9307;BME280;4691;47.612;7.610;2023-04-01T05:37:44;97160.53;;;11.27;100.00
9307;BME280;4691;47.612;7.610;2023-04-01T05:40:10;97159.63;;;10.94;100.00
9307;BME280;4691;47.612;7.610;2023-04-01T05:42:36;97175.13;;;11.41;100.00
9307;BME280;4691;47.612;7.610;2023-04-01T05:45:01;97145.53;;;11.51;100.00
9307;BME280;4691;47.612;7.610;2023-04-01T05:47:26;97145.19;;;11.54;100.00
9307;BME280;4691;47.612;7.610;2023-04-01T05:49:51;97151.19;;;11.31;100.00
9307;BME280;4691;47.612;7.610;2023-04-01T05:52:17;97150.16;;;11.24;100.00
9307;BME280;4691;47.612;7.610;2023-04-01T05:54:42;97156.59;;;11.56;100.00
9307;BME280;4691;47.612;7.610;2023-04-01T05:57:07;97165.94;;;11.36;100.00
9307;BME280;4691;47.612;7.610;2023-04-01T05:59:32;97152.56;;;11.44;100.00
9307;BME280;4691;47.612;7.610;2023-04-01T06:01:59;97162.72;;;11.32;100.00
9307;BME280;4691;47.612;7.610;2023-04-01T06:04:28;97158.91;;;11.51;100.00
9307;BME280;4691;47.612;7.610;2023-04-01T06:06:57;97163.88;;;11.29;100.00
9307;BME280;4691;47.612;7.610;2023-04-01T06:09:29;97171.22;;;11.27;100.00
9307;BME280;4691;47.612;7.610;2023-04-01T06:17:30;97178.31;;;11.45;100.00
9307;BME280;4691;47.612;7.610;2023-04-01T06:20:19;97176.94;;;11.32;100.00
9307;BME280;4691;47.612;7.610;2023-04-01T06:28:01;97558.06;;;10.76;100.00
9307;BME280;4691;47.612;7.610;2023-04-01T06:30:37;97332.22;;;11.15;100.00
9307;BME280;4691;47.612;7.610;2023-04-01T06:34:05;97435.00;;;10.86;100.00
9307;BME280;4691;47.612;7.610;2023-04-01T06:42:15;97299.03;;;11.33;100.00
9307;BME280;4691;47.612;7.610;2023-04-01T06:48:02;97284.28;;;11.21;100.00
9307;BME280;4691;47.612;7.610;2023-04-01T06:53:44;97254.63;;;11.65;100.00
9307;BME280;4691;47.612;7.610;2023-04-01T06:56:15;97236.44;;;11.18;100.00
9307;BME280;4691;47.612;7.610;2023-04-01T06:58:45;97217.81;;;11.59;100.00
9307;BME280;4691;47.612;7.610;2023-04-01T07:01:22;97223.81;;;11.45;100.00
9307;BME280;4691;47.612;7.610;2023-04-01T07:04:30;97217.13;;;11.49;100.00
9307;BME280;4691;47.612;7.610;2023-04-01T07:07:15;97202.03;;;11.31;100.00
9307;BME280;4691;47.612;7.610;2023-04-01T07:09:50;97213.75;;;11.30;100.00
9307;BME280;4691;47.612;7.610;2023-04-01T07:14:58;97215.78;;;11.53;100.00
9307;BME280;4691;47.612;7.610;2023-04-01T07:17:29;97220.75;;;11.31;100.00
9307;BME280;4691;47.612;7.610;2023-04-01T07:20:17;97235.06;;;11.06;100.00
9307;BME280;4691;47.612;7.610;2023-04-01T07:22:49;97323.53;;;11.55;100.00
9307;BME280;4691;47.612;7.610;2023-04-01T07:25:21;97512.75;;;11.28;100.00
9307;BME280;4691;47.612;7.610;2023-04-01T07:27:48;97362.34;;;11.51;100.00
9307;BME280;4691;47.612;7.610;2023-04-01T07:30:17;97309.34;;;11.20;100.00
9307;BME280;4691;47.612;7.610;2023-04-01T07:32:48;97333.81;;;11.33;100.00
9307;BME280;4691;47.612;7.610;2023-04-01T07:35:35;97349.13;;;11.15;100.00
9307;BME280;4691;47.612;7.610;2023-04-01T07:44:11;97301.88;;;11.40;24.19
9307;BME280;4691;47.612;7.610;2023-04-01T07:50:28;98062.00;;;11.50;30.95
9307;BME280;4691;47.612;7.610;2023-04-01T07:53:19;98115.69;;;11.39;100.00
9307;BME280;4691;47.612;7.610;2023-04-01T07:56:04;97700.28;;;11.53;100.00
9307;BME280;4691;47.612;7.610;2023-04-01T07:59:00;97404.44;;;11.41;100.00
9307;BME280;4691;47.612;7.610;2023-04-01T08:01:32;97300.53;;;11.28;100.00
9307;BME280;4691;47.612;7.610;2023-04-01T08:14:38;97262.44;;;11.42;100.00
9307;BME280;4691;47.612;7.610;2023-04-01T08:17:16;97248.91;;;11.52;100.00
9307;BME280;4691;47.612;7.610;2023-04-01T08:22:37;97223.50;;;11.56;100.00
9307;BME280;4691;47.612;7.610;2023-04-01T08:25:05;97216.81;;;11.68;100.00
9307;BME280;4691;47.612;7.610;2023-04-01T08:27:38;97208.13;;;11.66;100.00
9307;BME280;4691;47.612;7.610;2023-04-01T08:30:20;97205.09;;;11.61;100.00
9307;BME280;4691;47.612;7.610;2023-04-01T08:32:55;97202.72;;;11.50;100.00
9307;BME280;4691;47.612;7.610;2023-04-01T08:35:34;97208.34;;;11.97;100.00
9307;BME280;4691;47.612;7.610;2023-04-01T08:38:17;97208.47;;;11.71;100.00
9307;BME280;4691;47.612;7.610;2023-04-01T08:40:56;97222.03;;;11.86;100.00
9307;BME280;4691;47.612;7.610;2023-04-01T08:43:38;97213.16;;;11.86;100.00
9307;BME280;4691;47.612;7.610;2023-04-01T08:46:37;97194.75;;;11.99;100.00
9307;BME280;4691;47.612;7.610;2023-04-01T08:59:54;97203.13;;;11.96;100.00
9307;BME280;4691;47.612;7.610;2023-04-01T09:02:35;97212.84;;;12.22;100.00
9307;BME280;4691;47.612;7.610;2023-04-01T09:08:25;97229.59;;;11.91;100.00
9307;BME280;4691;47.612;7.610;2023-04-01T09:10:57;97220.22;;;12.03;100.00
9307;BME280;4691;47.612;7.610;2023-04-01T09:16:05;97234.75;;;12.25;100.00
9307;BME280;4691;47.612;7.610;2023-04-01T09:18:48;97245.97;;;12.61;100.00
9307;BME280;4691;47.612;7.610;2023-04-01T09:26:57;97294.75;;;12.16;100.00
9307;BME280;4691;47.612;7.610;2023-04-01T09:34:58;97347.16;;;12.18;100.00
9307;BME280;4691;47.612;7.610;2023-04-01T09:40:25;97635.81;;;12.34;100.00
9307;BME280;4691;47.612;7.610;2023-04-01T09:43:06;97204.47;;;12.16;100.00
9307;BME280;4691;47.612;7.610;2023-04-01T09:45:48;97169.28;;;11.62;100.00
9307;BME280;4691;47.612;7.610;2023-04-01T09:48:41;97165.53;;;12.53;100.00
9307;BME280;4691;47.612;7.610;2023-04-01T09:51:25;97169.66;;;12.00;100.00
9307;BME280;4691;47.612;7.610;2023-04-01T09:54:20;97187.38;;;11.76;100.00
9307;BME280;4691;47.612;7.610;2023-04-01T09:57:22;97199.72;;;12.43;100.00
9307;BME280;4691;47.612;7.610;2023-04-01T10:16:45;97206.47;;;12.39;100.00
9307;BME280;4691;47.612;7.610;2023-04-01T10:22:11;97245.28;;;12.59;100.00
9307;BME280;4691;47.612;7.610;2023-04-01T10:24:50;97241.66;;;12.36;100.00
9307;BME280;4691;47.612;7.610;2023-04-01T10:39:19;97242.47;;;12.36;100.00
9307;BME280;4691;47.612;7.610;2023-04-01T10:49:48;97950.50;;;12.24;100.00
9307;BME280;4691;47.612;7.610;2023-04-01T11:07:16;97244.47;;;12.10;100.00
9307;BME280;4691;47.612;7.610;2023-04-01T11:09:18;97234.94;;;12.07;100.00
9307;BME280;4691;47.612;7.610;2023-04-01T11:12:08;97237.28;;;12.27;100.00
9307;BME280;4691;47.612;7.610;2023-04-01T11:14:43;97241.44;;;12.54;100.00
9307;BME280;4691;47.612;7.610;2023-04-01T11:20:38;97249.94;;;12.74;100.00
9307;BME280;4691;47.612;7.610;2023-04-01T11:23:27;97241.91;;;12.82;100.00
9307;BME280;4691;47.612;7.610;2023-04-01T11:29:08;97257.78;;;13.00;100.00
9307;BME280;4691;47.612;7.610;2023-04-01T11:32:02;97260.53;;;13.31;100.00
9307;BME280;4691;47.612;7.610;2023-04-01T11:34:39;97258.75;;;12.99;100.00
9307;BME280;4691;47.612;7.610;2023-04-01T11:39:56;97316.41;;;13.67;100.00
9307;BME280;4691;47.612;7.610;2023-04-01T11:48:07;97345.44;;;13.63;100.00
9307;BME280;4691;47.612;7.610;2023-04-01T11:51:00;97342.47;;;13.89;100.00
9307;BME280;4691;47.612;7.610;2023-04-01T11:53:34;97345.25;;;13.73;100.00
9307;BME280;4691;47.612;7.610;2023-04-01T12:10:15;97574.44;;;15.31;100.00
9307;BME280;4691;47.612;7.610;2023-04-01T12:15:50;97591.59;;;14.28;100.00
9307;BME280;4691;47.612;7.610;2023-04-01T12:18:36;97530.06;;;14.33;100.00
9307;BME280;4691;47.612;7.610;2023-04-01T12:21:14;97502.22;;;14.26;100.00
9307;BME280;4691;47.612;7.610;2023-04-01T12:23:59;97430.59;;;13.55;100.00
9307;BME280;4691;47.612;7.610;2023-04-01T12:29:22;97763.00;;;13.35;100.00
9307;BME280;4691;47.612;7.610;2023-04-01T12:31:59;97156.31;;;13.81;100.00
9307;BME280;4691;47.612;7.610;2023-04-01T12:37:12;97245.22;;;14.55;100.00
9307;BME280;4691;47.612;7.610;2023-04-01T12:39:59;97279.59;;;14.83;100.00
9307;BME280;4691;47.612;7.610;2023-04-01T12:42:47;97322.78;;;14.20;100.00
9307;BME280;4691;47.612;7.610;2023-04-01T12:59:19;97349.94;;;14.56;100.00
9307;BME280;4691;47.612;7.610;2023-04-01T13:02:00;97393.34;;;13.91;100.00
9307;BME280;4691;47.612;7.610;2023-04-01T13:04:35;97369.34;;;14.21;100.00
9307;BME280;4691;47.612;7.610;2023-04-01T13:10:06;96617.59;;;14.00;100.00
9307;BME280;4691;47.612;7.610;2023-04-01T13:15:41;97213.09;;;14.01;100.00
9307;BME280;4691;47.612;7.610;2023-04-01T13:18:22;97132.91;;;13.66;100.00
9307;BME280;4691;47.612;7.610;2023-04-01T13:21:19;97180.19;;;13.99;100.00
9307;BME280;4691;47.612;7.610;2023-04-01T13:24:03;97233.53;;;13.56;100.00
9307;BME280;4691;47.612;7.610;2023-04-01T13:29:13;97259.06;;;14.06;100.00
9307;BME280;4691;47.612;7.610;2023-04-01T13:42:34;97299.78;;;13.63;100.00
9307;BME280;4691;47.612;7.610;2023-04-01T13:45:09;97304.03;;;13.58;100.00
9307;BME280;4691;47.612;7.610;2023-04-01T13:50:45;97374.78;;;13.73;100.00
9307;BME280;4691;47.612;7.610;2023-04-01T13:56:24;97592.34;;;13.81;100.00
9307;BME280;4691;47.612;7.610;2023-04-01T13:59:25;97636.97;;;14.15;100.00
9307;BME280;4691;47.612;7.610;2023-04-01T14:04:49;97717.00;;;15.87;100.00
9307;BME280;4691;47.612;7.610;2023-04-01T14:10:19;97722.69;;;16.68;100.00
9307;BME280;4691;47.612;7.610;2023-04-01T14:13:20;97784.69;;;18.44;100.00
9307;BME280;4691;47.612;7.610;2023-04-01T14:21:17;97711.91;;;15.69;100.00
9307;BME280;4691;47.612;7.610;2023-04-01T14:27:19;97572.34;;;14.48;100.00
9307;BME280;4691;47.612;7.610;2023-04-01T14:32:05;97469.88;;;12.90;100.00
9307;BME280;4691;47.612;7.610;2023-04-01T14:34:55;97473.56;;;13.38;100.00
9307;BME280;4691;47.612;7.610;2023-04-01T14:38:00;97499.34;;;13.64;100.00
9307;BME280;4691;47.612;7.610;2023-04-01T14:46:06;97572.16;;;12.87;100.00
9307;BME280;4691;47.612;7.610;2023-04-01T14:48:48;97565.63;;;12.98;100.00
9307;BME280;4691;47.612;7.610;2023-04-01T14:51:28;97555.13;;;13.29;100.00
9307;BME280;4691;47.612;7.610;2023-04-01T14:54:08;97530.91;;;12.88;100.00
9307;BME280;4691;47.612;7.610;2023-04-01T14:56:51;97535.56;;;12.78;100.00
9307;BME280;4691;47.612;7.610;2023-04-01T14:59:28;97538.69;;;13.57;100.00
9307;BME280;4691;47.612;7.610;2023-04-01T15:02:08;97554.75;;;13.16;100.00
9307;BME280;4691;47.612;7.610;2023-04-01T15:18:18;97756.16;;;17.11;100.00
9307;BME280;4691;47.612;7.610;2023-04-01T15:21:07;97751.25;;;16.77;100.00
9307;BME280;4691;47.612;7.610;2023-04-01T15:34:32;97542.66;;;14.33;100.00
9307;BME280;4691;47.612;7.610;2023-04-01T15:37:11;97536.75;;;14.77;100.00
9307;BME280;4691;47.612;7.610;2023-04-01T15:42:31;97511.94;;;14.90;100.00
9307;BME280;4691;47.612;7.610;2023-04-01T15:48:19;97450.28;;;14.26;100.00
9307;BME280;4691;47.612;7.610;2023-04-01T15:54:01;97459.75;;;14.45;100.00
9307;BME280;4691;47.612;7.610;2023-04-01T15:59:20;97636.47;;;17.47;100.00
9307;BME280;4691;47.612;7.610;2023-04-01T16:01:59;97824.09;;;22.51;100.00
9307;BME280;4691;47.612;7.610;2023-04-01T16:04:49;97830.50;;;19.17;100.00
9307;BME280;4691;47.612;7.610;2023-04-01T16:10:09;97784.00;;;15.59;100.00
9307;BME280;4691;47.612;7.610;2023-04-01T16:13:06;97704.09;;;14.80;100.00
9307;BME280;4691;47.612;7.610;2023-04-01T16:16:07;97719.84;;;18.30;100.00
9307;BME280;4691;47.612;7.610;2023-04-01T16:18:40;97807.19;;;18.45;100.00
9307;BME280;4691;47.612;7.610;2023-04-01T16:23:58;97829.00;;;18.65;100.00
9307;BME280;4691;47.612;7.610;2023-04-01T16:26:29;97838.38;;;18.41;100.00
9307;BME280;4691;47.612;7.610;2023-04-01T16:31:55;97870.34;;;15.18;100.00
9307;BME280;4691;47.612;7.610;2023-04-01T16:34:36;97670.28;;;14.78;100.00
9307;BME280;4691;47.612;7.610;2023-04-01T16:37:09;97851.75;;;19.20;100.00
9307;BME280;4691;47.612;7.610;2023-04-01T16:42:35;97807.97;;;16.16;100.00
9307;BME280;4691;47.612;7.610;2023-04-01T16:47:53;97793.78;;;15.60;100.00
9307;BME280;4691;47.612;7.610;2023-04-01T16:50:24;97752.56;;;14.40;100.00
9307;BME280;4691;47.612;7.610;2023-04-01T16:53:14;97674.31;;;13.85;100.00
9307;BME280;4691;47.612;7.610;2023-04-01T16:58:35;97647.75;;;14.07;100.00
9307;BME280;4691;47.612;7.610;2023-04-01T17:03:37;97634.59;;;13.22;100.00
9307;BME280;4691;47.612;7.610;2023-04-01T17:14:04;97607.88;;;12.96;100.00
9307;BME280;4691;47.612;7.610;2023-04-01T17:16:51;97619.16;;;13.16;100.00
9307;BME280;4691;47.612;7.610;2023-04-01T17:19:32;97612.16;;;12.64;100.00
9307;BME280;4691;47.612;7.610;2023-04-01T17:27:50;97591.53;;;12.64;100.00
9307;BME280;4691;47.612;7.610;2023-04-01T17:35:32;97589.31;;;12.52;100.00
9307;BME280;4691;47.612;7.610;2023-04-01T17:40:41;97596.34;;;12.53;100.00
9307;BME280;4691;47.612;7.610;2023-04-01T17:43:33;97588.66;;;12.58;100.00
9307;BME280;4691;47.612;7.610;2023-04-01T17:52:31;97492.88;;;12.26;100.00
9307;BME280;4691;47.612;7.610;2023-04-01T17:55:20;97465.28;;;12.41;100.00
9307;BME280;4691;47.612;7.610;2023-04-01T18:06:19;97472.09;;;12.28;100.00
9307;BME280;4691;47.612;7.610;2023-04-01T18:14:13;97436.19;;;12.04;100.00
9307;BME280;4691;47.612;7.610;2023-04-01T18:19:28;97294.78;;;11.65;100.00
9307;BME280;4691;47.612;7.610;2023-04-01T18:22:15;97303.16;;;11.70;100.00
9307;BME280;4691;47.612;7.610;2023-04-01T18:24:45;97313.88;;;11.70;100.00
9307;BME280;4691;47.612;7.610;2023-04-01T18:27:22;97320.13;;;11.37;100.00
9307;BME280;4691;47.612;7.610;2023-04-01T18:29:53;97324.09;;;11.32;100.00
9307;BME280;4691;47.612;7.610;2023-04-01T18:32:33;97356.88;;;11.26;100.00
9307;BME280;4691;47.612;7.610;2023-04-01T18:38:11;96510.72;;;10.63;27.29
9307;BME280;4691;47.612;7.610;2023-04-01T18:40:40;96651.94;;;10.43;27.94
9307;BME280;4691;47.612;7.610;2023-04-01T18:43:12;96781.66;;;9.97;28.35
9307;BME280;4691;47.612;7.610;2023-04-01T18:45:57;96875.50;;;10.35;30.07
9307;BME280;4691;47.612;7.610;2023-04-01T18:51:36;97774.63;;;10.10;100.00
9307;BME280;4691;47.612;7.610;2023-04-01T18:54:13;98086.22;;;10.20;100.00
9307;BME280;4691;47.612;7.610;2023-04-01T18:56:45;98049.66;;;10.21;100.00
9307;BME280;4691;47.612;7.610;2023-04-01T18:59:25;97957.81;;;10.12;100.00
9307;BME280;4691;47.612;7.610;2023-04-01T19:02:18;97854.78;;;10.10;100.00
9307;BME280;4691;47.612;7.610;2023-04-01T19:07:48;97742.13;;;10.14;100.00
9307;BME280;4691;47.612;7.610;2023-04-01T19:10:48;97604.50;;;10.20;100.00
9307;BME280;4691;47.612;7.610;2023-04-01T19:21:14;97635.25;;;9.77;100.00
9307;BME280;4691;47.612;7.610;2023-04-01T19:26:49;97666.47;;;9.76;100.00
9307;BME280;4691;47.612;7.610;2023-04-01T19:34:47;97802.66;;;9.36;100.00
9307;BME280;4691;47.612;7.610;2023-04-01T19:37:28;97915.88;;;9.43;100.00
9307;BME280;4691;47.612;7.610;2023-04-01T19:42:55;97906.06;;;9.44;100.00
9307;BME280;4691;47.612;7.610;2023-04-01T19:45:32;97947.19;;;9.41;100.00
9307;BME280;4691;47.612;7.610;2023-04-01T19:56:57;97912.19;;;9.34;100.00
9307;BME280;4691;47.612;7.610;2023-04-01T20:02:30;98023.13;;;8.95;100.00
9307;BME280;4691;47.612;7.610;2023-04-01T20:05:00;98105.72;;;9.06;100.00
9307;BME280;4691;47.612;7.610;2023-04-01T20:07:43;98154.00;;;9.03;100.00
9307;BME280;4691;47.612;7.610;2023-04-01T20:10:17;98192.56;;;8.88;100.00
9307;BME280;4691;47.612;7.610;2023-04-01T20:12:54;98190.13;;;8.96;100.00
9307;BME280;4691;47.612;7.610;2023-04-01T20:17:54;98215.81;;;9.08;100.00
9307;BME280;4691;47.612;7.610;2023-04-01T20:20:28;98230.84;;;8.98;100.00
9307;BME280;4691;47.612;7.610;2023-04-01T20:26:05;98243.44;;;9.19;100.00
9307;BME280;4691;47.612;7.610;2023-04-01T20:28:43;98212.34;;;9.29;100.00
9307;BME280;4691;47.612;7.610;2023-04-01T20:31:30;98197.53;;;9.36;100.00
9307;BME280;4691;47.612;7.610;2023-04-01T20:34:41;98200.22;;;9.25;100.00